createdAt,value
2018-09-09T00:02:11.736Z,13.52
2018-09-09T00:04:38.935Z,13.37
2018-09-09T00:08:30.720Z,13.28
2018-09-09T00:10:57.963Z,13.19
2018-09-09T00:13:25.197Z,13.17
2018-09-09T00:15:52.403Z,13.19
2018-09-09T00:18:19.673Z,13.23
2018-09-09T00:20:46.856Z,13.26
2018-09-09T00:23:14.103Z,13.30
2018-09-09T00:25:41.294Z,13.26
2018-09-09T00:28:08.449Z,13.29
2018-09-09T00:30:35.676Z,13.32
2018-09-09T00:33:02.901Z,13.30
2018-09-09T00:35:30.117Z,13.33
2018-09-09T00:37:57.377Z,13.28
2018-09-09T00:40:24.648Z,13.20
2018-09-09T00:42:51.938Z,13.21
2018-09-09T00:45:19.145Z,13.22
2018-09-09T00:47:46.432Z,13.11
2018-09-09T00:50:19.458Z,13.03
2018-09-09T00:52:52.429Z,12.97
2018-09-09T00:55:19.646Z,12.99
2018-09-09T00:57:46.863Z,12.97
2018-09-09T01:00:16.938Z,13.01
2018-09-09T01:02:44.158Z,12.99
2018-09-09T01:05:11.431Z,12.95
2018-09-09T01:07:38.693Z,13.02
2018-09-09T01:10:05.896Z,13.04
2018-09-09T01:12:33.144Z,12.99
2018-09-09T01:15:00.296Z,12.99
2018-09-09T01:17:27.565Z,13.00
2018-09-09T01:19:54.794Z,13.00
2018-09-09T01:22:21.965Z,12.97
2018-09-09T01:24:49.155Z,12.88
2018-09-09T01:27:16.412Z,12.87
2018-09-09T01:29:43.634Z,12.87
2018-09-09T01:32:10.878Z,12.86
2018-09-09T01:34:38.097Z,12.81
2018-09-09T01:37:05.361Z,12.73
2018-09-09T01:39:32.600Z,12.72
2018-09-09T01:41:59.787Z,12.73
2018-09-09T01:44:27.034Z,12.74
2018-09-09T01:46:54.313Z,12.68
2018-09-09T01:49:21.529Z,12.56
2018-09-09T01:51:48.760Z,12.61
2018-09-09T01:54:16.003Z,12.67
2018-09-09T01:56:43.179Z,12.66
2018-09-09T01:59:10.444Z,12.60
2018-09-09T02:01:37.661Z,12.55
2018-09-09T02:04:04.960Z,12.62
2018-09-09T02:06:32.184Z,12.64
2018-09-09T02:08:59.392Z,12.72
2018-09-09T02:11:26.615Z,12.75
2018-09-09T02:13:53.888Z,12.68
2018-09-09T02:16:21.097Z,12.73
2018-09-09T02:18:48.321Z,12.64
2018-09-09T02:21:15.560Z,12.58
2018-09-09T02:26:22.423Z,12.60
2018-09-09T02:28:49.645Z,12.54
2018-09-09T02:31:16.805Z,12.50
2018-09-09T02:33:44.102Z,12.43
2018-09-09T02:36:11.580Z,12.44
2018-09-09T02:38:38.860Z,12.38
2018-09-09T02:41:06.017Z,12.27
2018-09-09T02:43:33.234Z,12.19
2018-09-09T02:46:00.488Z,12.23
2018-09-09T02:48:27.697Z,12.24
2018-09-09T02:50:54.880Z,12.27
2018-09-09T02:53:22.107Z,12.23
2018-09-09T02:55:49.373Z,12.25
2018-09-09T02:58:16.638Z,12.30
2018-09-09T03:00:44.024Z,12.23
2018-09-09T03:03:11.265Z,12.24
2018-09-09T03:05:38.662Z,12.19
2018-09-09T03:08:06.373Z,12.19
2018-09-09T03:10:33.670Z,12.14
2018-09-09T03:13:01.030Z,12.18
2018-09-09T03:15:28.312Z,12.14
2018-09-09T03:17:55.518Z,12.12
2018-09-09T03:20:22.787Z,12.12
2018-09-09T03:22:50.022Z,12.12
2018-09-09T03:25:17.198Z,12.15
2018-09-09T03:27:44.426Z,12.12
2018-09-09T03:30:11.662Z,12.16
2018-09-09T03:32:38.937Z,12.06
2018-09-09T03:35:06.218Z,12.03
2018-09-09T03:37:33.399Z,11.81
2018-09-09T03:40:00.641Z,11.86
2018-09-09T03:42:27.880Z,11.81
2018-09-09T03:44:55.095Z,11.87
2018-09-09T03:47:22.346Z,11.86
2018-09-09T03:49:49.594Z,11.85
2018-09-09T03:52:16.848Z,11.83
2018-09-09T03:54:44.005Z,11.77
2018-09-09T03:57:11.206Z,11.78
2018-09-09T03:59:38.509Z,11.79
2018-09-09T04:02:05.803Z,11.65
2018-09-09T04:04:33.063Z,11.62
2018-09-09T04:07:00.305Z,11.61
2018-09-09T04:09:27.535Z,11.70
2018-09-09T04:11:54.784Z,11.70
2018-09-09T04:14:21.953Z,11.73
2018-09-09T04:16:49.171Z,11.70
2018-09-09T04:19:16.366Z,11.74
2018-09-09T04:21:51.931Z,11.74
2018-09-09T04:24:20.253Z,11.77
2018-09-09T04:26:47.628Z,11.62
2018-09-09T04:29:15.052Z,11.56
2018-09-09T04:31:42.509Z,11.46
2018-09-09T04:34:09.813Z,11.49
2018-09-09T04:36:37.095Z,11.52
2018-09-09T04:39:07.417Z,11.58
2018-09-09T04:41:34.561Z,11.60
2018-09-09T04:44:01.780Z,11.63
2018-09-09T04:46:29.121Z,11.58
2018-09-09T04:48:56.249Z,11.67
2018-09-09T04:51:23.454Z,11.66
2018-09-09T04:53:50.617Z,11.70
2018-09-09T04:56:17.890Z,11.68
2018-09-09T04:58:45.103Z,11.74
2018-09-09T05:01:12.436Z,11.79
2018-09-09T05:03:39.612Z,11.78
2018-09-09T05:06:06.902Z,11.60
2018-09-09T05:08:34.131Z,11.39
2018-09-09T05:11:01.365Z,11.31
2018-09-09T05:13:28.590Z,11.35
2018-09-09T05:15:55.823Z,11.52
2018-09-09T05:18:22.979Z,11.68
2018-09-09T05:20:50.225Z,11.71
2018-09-09T05:23:17.397Z,11.76
2018-09-09T05:25:44.625Z,11.82
2018-09-09T05:28:11.878Z,11.94
2018-09-09T05:30:39.096Z,12.07
2018-09-09T05:33:06.347Z,12.12
2018-09-09T05:35:33.561Z,12.09
2018-09-09T05:38:00.781Z,12.09
2018-09-09T05:40:28.006Z,12.22
2018-09-09T05:42:55.204Z,12.19
2018-09-09T05:45:22.416Z,11.96
2018-09-09T05:47:49.701Z,11.83
2018-09-09T05:50:17.013Z,11.96
2018-09-09T05:52:44.185Z,12.24
2018-09-09T05:55:11.504Z,12.54
2018-09-09T05:57:38.945Z,12.67
2018-09-09T06:00:06.203Z,12.78
2018-09-09T06:02:33.518Z,12.79
2018-09-09T06:05:00.745Z,12.76
2018-09-09T06:07:27.978Z,12.92
2018-09-09T06:09:55.158Z,12.95
2018-09-09T06:12:22.355Z,13.02
2018-09-09T06:14:49.610Z,13.23
2018-09-09T06:17:16.742Z,13.43
2018-09-09T06:19:43.965Z,13.57
2018-09-09T06:22:11.235Z,13.68
2018-09-09T06:24:38.483Z,13.79
2018-09-09T06:27:05.717Z,13.78
2018-09-09T06:29:32.924Z,13.82
2018-09-09T06:32:00.212Z,13.87
2018-09-09T06:34:27.408Z,14.04
2018-09-09T06:36:54.667Z,14.02
2018-09-09T06:39:21.883Z,13.94
2018-09-09T06:41:49.187Z,14.07
2018-09-09T06:44:16.479Z,14.42
2018-09-09T06:46:43.773Z,14.73
2018-09-09T06:49:11.012Z,14.81
2018-09-09T06:51:38.239Z,14.83
2018-09-09T06:54:05.536Z,14.89
2018-09-09T06:56:32.923Z,15.28
2018-09-09T06:59:00.114Z,15.82
2018-09-09T07:01:27.333Z,16.59
2018-09-09T07:03:54.551Z,17.26
2018-09-09T07:06:21.828Z,17.97
2018-09-09T07:08:49.068Z,18.26
2018-09-09T07:11:16.270Z,18.57
2018-09-09T07:13:43.527Z,18.75
2018-09-09T07:16:10.782Z,19.15
2018-09-09T07:18:38.091Z,19.59
2018-09-09T07:21:05.332Z,19.89
2018-09-09T07:23:32.554Z,20.11
2018-09-09T07:25:59.798Z,20.01
2018-09-09T07:28:27.044Z,20.64
2018-09-09T07:30:54.208Z,21.51
2018-09-09T07:33:21.410Z,22.39
2018-09-09T07:35:48.641Z,22.85
2018-09-09T07:38:15.897Z,22.63
2018-09-09T07:40:43.220Z,22.63
2018-09-09T07:43:10.535Z,22.65
2018-09-09T07:45:37.696Z,22.80
2018-09-09T07:48:05.345Z,23.34
2018-09-09T07:50:32.620Z,23.79
2018-09-09T07:52:59.848Z,24.35
2018-09-09T07:55:27.047Z,24.75
2018-09-09T07:57:54.292Z,25.04
2018-09-09T08:00:21.548Z,25.04
2018-09-09T08:02:48.765Z,25.54
2018-09-09T08:05:15.987Z,25.39
2018-09-09T08:07:43.234Z,25.22
2018-09-09T08:10:10.521Z,25.31
2018-09-09T08:12:37.758Z,25.35
2018-09-09T08:15:05.468Z,25.22
2018-09-09T08:17:32.685Z,25.04
2018-09-09T08:19:59.873Z,25.06
2018-09-09T08:22:27.139Z,24.66
2018-09-09T08:24:54.421Z,23.98
2018-09-09T08:27:21.730Z,23.62
2018-09-09T08:29:48.996Z,23.46
2018-09-09T08:32:16.220Z,23.43
2018-09-09T08:34:43.460Z,23.29
2018-09-09T08:37:10.725Z,23.35
2018-09-09T08:39:37.949Z,23.47
2018-09-09T08:42:05.245Z,23.26
2018-09-09T08:44:32.457Z,23.35
2018-09-09T08:46:59.734Z,23.55
2018-09-09T08:49:26.951Z,23.42
2018-09-09T08:51:54.220Z,23.56
2018-09-09T08:54:21.442Z,23.58
2018-09-09T08:56:48.640Z,23.79
2018-09-09T08:59:15.873Z,23.79
2018-09-09T09:01:43.064Z,23.92
2018-09-09T09:04:10.275Z,23.87
2018-09-09T09:06:37.468Z,24.19
2018-09-09T09:09:06.989Z,24.52
2018-09-09T09:11:34.227Z,24.59
2018-09-09T09:14:01.521Z,24.54
2018-09-09T09:16:28.723Z,24.44
2018-09-09T09:18:55.927Z,24.34
2018-09-09T09:21:23.164Z,24.26
2018-09-09T09:23:50.381Z,24.38
2018-09-09T09:26:17.720Z,24.47
2018-09-09T09:28:44.958Z,24.74
2018-09-09T09:31:12.182Z,24.60
2018-09-09T09:33:39.445Z,24.56
2018-09-09T09:36:07.028Z,24.66
2018-09-09T09:38:34.298Z,24.72
2018-09-09T09:41:01.515Z,25.06
2018-09-09T09:43:28.765Z,25.32
2018-09-09T09:45:55.990Z,25.28
2018-09-09T09:48:23.248Z,25.03
2018-09-09T09:50:50.447Z,25.33
2018-09-09T09:53:17.771Z,25.61
2018-09-09T09:55:44.963Z,25.77
2018-09-09T09:58:12.203Z,26.13
2018-09-09T10:01:01.048Z,25.54
2018-09-09T10:03:28.351Z,24.94
2018-09-09T10:05:55.538Z,25.37
2018-09-09T10:08:22.780Z,25.73
2018-09-09T10:10:50.114Z,25.92
2018-09-09T10:13:17.346Z,26.07
2018-09-09T10:15:44.585Z,26.24
2018-09-09T10:18:11.837Z,26.83
2018-09-09T10:20:39.144Z,26.86
2018-09-09T10:23:06.473Z,26.63
2018-09-09T10:25:33.727Z,26.45
2018-09-09T10:28:00.937Z,26.36
2018-09-09T10:30:28.181Z,26.24
2018-09-09T10:32:55.933Z,25.85
2018-09-09T10:35:23.536Z,25.43
2018-09-09T10:37:50.774Z,25.24
2018-09-09T10:40:18.120Z,25.05
2018-09-09T10:42:45.287Z,24.86
2018-09-09T10:45:12.575Z,25.17
2018-09-09T10:47:39.882Z,25.76
2018-09-09T10:50:07.202Z,26.19
2018-09-09T10:52:34.430Z,26.78
2018-09-09T10:55:01.783Z,27.30
2018-09-09T10:57:29.053Z,27.60
2018-09-09T10:59:56.413Z,27.79
2018-09-09T11:02:24.066Z,27.63
2018-09-09T11:04:51.403Z,27.47
2018-09-09T11:07:18.960Z,27.58
2018-09-09T11:09:46.207Z,27.51
2018-09-09T11:12:13.472Z,27.73
2018-09-09T11:14:40.777Z,27.57
2018-09-09T11:17:07.977Z,26.98
2018-09-09T11:19:35.294Z,26.79
2018-09-09T11:22:02.535Z,28.06
2018-09-09T11:24:29.857Z,28.31
2018-09-09T11:26:56.997Z,28.42
2018-09-09T11:29:24.243Z,28.03
2018-09-09T11:31:51.505Z,28.36
2018-09-09T11:34:18.745Z,28.46
2018-09-09T11:36:46.068Z,28.95
2018-09-09T11:39:13.311Z,29.36
2018-09-09T11:41:42.287Z,29.99
2018-09-09T11:44:09.638Z,30.82
2018-09-09T11:46:36.980Z,31.18
2018-09-09T11:49:04.201Z,31.38
2018-09-09T11:51:31.836Z,31.64
2018-09-09T11:53:59.114Z,32.14
2018-09-09T11:56:26.753Z,32.28
2018-09-09T11:58:54.211Z,31.53
2018-09-09T12:01:21.551Z,31.16
2018-09-09T12:03:48.846Z,31.39
2018-09-09T12:06:16.170Z,31.00
2018-09-09T12:08:43.431Z,31.02
2018-09-09T12:11:10.667Z,30.83
2018-09-09T12:13:37.973Z,31.12
2018-09-09T12:16:05.263Z,31.07
2018-09-09T12:18:32.566Z,31.18
2018-09-09T12:20:59.939Z,31.84
2018-09-09T12:23:29.141Z,31.81
2018-09-09T12:25:56.408Z,30.76
2018-09-09T12:28:23.664Z,29.12
2018-09-09T12:30:50.915Z,29.04
2018-09-09T12:33:18.216Z,28.91
2018-09-09T12:35:45.563Z,29.48
2018-09-09T12:38:12.799Z,29.65
2018-09-09T12:40:40.038Z,29.23
2018-09-09T12:43:13.047Z,28.64
2018-09-09T12:46:48.874Z,29.72
2018-09-09T12:49:18.769Z,31.08
2018-09-09T12:51:47.595Z,31.91
2018-09-09T12:54:14.836Z,31.98
2018-09-09T12:56:42.138Z,32.12
2018-09-09T12:59:09.401Z,32.24
2018-09-09T13:01:36.648Z,32.45
2018-09-09T13:04:03.938Z,32.66
2018-09-09T13:06:31.135Z,32.97
2018-09-09T13:08:58.412Z,32.94
2018-09-09T13:11:25.974Z,33.04
2018-09-09T13:13:53.256Z,32.72
2018-09-09T13:16:20.489Z,31.78
2018-09-09T13:18:47.789Z,31.24
2018-09-09T13:21:14.976Z,30.37
2018-09-09T13:23:42.296Z,29.76
2018-09-09T13:26:09.573Z,29.85
2018-09-09T13:28:36.816Z,29.82
2018-09-09T13:31:04.145Z,29.50
2018-09-09T13:33:31.416Z,29.28
2018-09-09T13:36:00.157Z,29.15
2018-09-09T13:38:27.431Z,29.24
2018-09-09T13:40:54.704Z,29.85
2018-09-09T13:43:22.034Z,30.66
2018-09-09T13:45:49.334Z,30.83
2018-09-09T13:48:16.760Z,30.65
2018-09-09T13:50:43.956Z,30.85
2018-09-09T13:53:11.242Z,30.51
2018-09-09T13:55:38.470Z,30.00
2018-09-09T13:58:05.697Z,29.52
2018-09-09T14:00:32.978Z,30.05
2018-09-09T14:03:00.282Z,30.72
2018-09-09T14:05:27.555Z,30.77
2018-09-09T14:07:54.749Z,30.63
2018-09-09T14:10:22.056Z,30.99
2018-09-09T14:12:49.276Z,31.29
2018-09-09T14:15:16.516Z,31.23
2018-09-09T14:17:43.697Z,31.45
2018-09-09T14:20:10.950Z,31.23
2018-09-09T14:22:38.423Z,31.73
2018-09-09T14:25:05.724Z,32.09
2018-09-09T14:27:32.930Z,32.41
2018-09-09T14:30:00.160Z,32.55
2018-09-09T14:32:27.437Z,32.60
2018-09-09T14:34:54.804Z,32.45
2018-09-09T14:37:22.076Z,32.55
2018-09-09T14:39:49.317Z,32.57
2018-09-09T14:42:16.566Z,32.45
2018-09-09T14:44:43.847Z,32.84
2018-09-09T14:47:11.040Z,33.06
2018-09-09T14:49:38.389Z,32.88
2018-09-09T14:52:05.672Z,33.30
2018-09-09T14:54:33.007Z,33.63
2018-09-09T14:57:00.251Z,33.96
2018-09-09T14:59:27.495Z,34.13
2018-09-09T15:01:54.666Z,33.79
2018-09-09T15:04:21.883Z,33.96
2018-09-09T15:06:49.156Z,33.91
2018-09-09T15:09:16.387Z,33.38
2018-09-09T15:11:43.625Z,34.00
2018-09-09T15:14:10.911Z,34.16
2018-09-09T15:16:38.207Z,34.36
2018-09-09T15:19:05.457Z,34.34
2018-09-09T15:21:32.687Z,34.52
2018-09-09T15:23:59.975Z,34.77
2018-09-09T15:26:27.277Z,34.73
2018-09-09T15:28:54.580Z,34.51
2018-09-09T15:31:21.857Z,34.57
2018-09-09T15:33:49.069Z,34.81
2018-09-09T15:36:16.582Z,34.86
2018-09-09T15:38:43.924Z,34.68
2018-09-09T15:41:11.093Z,34.74
2018-09-09T15:43:38.369Z,34.68
2018-09-09T15:46:05.664Z,34.57
2018-09-09T15:48:32.964Z,33.48
2018-09-09T15:51:00.229Z,31.68
2018-09-09T15:53:27.498Z,31.24
2018-09-09T15:55:54.834Z,31.75
2018-09-09T15:58:22.104Z,31.99
2018-09-09T16:00:49.380Z,32.20
2018-09-09T16:03:16.600Z,32.55
2018-09-09T16:05:43.884Z,32.61
2018-09-09T16:08:11.179Z,32.70
2018-09-09T16:10:38.403Z,32.42
2018-09-09T16:13:05.644Z,32.37
2018-09-09T16:15:32.890Z,32.16
2018-09-09T16:18:00.149Z,32.28
2018-09-09T16:20:27.383Z,32.01
2018-09-09T16:22:54.643Z,32.10
2018-09-09T16:25:21.871Z,31.89
2018-09-09T16:27:49.085Z,31.88
2018-09-09T16:30:16.275Z,31.77
2018-09-09T16:32:43.553Z,31.54
2018-09-09T16:35:10.746Z,31.35
2018-09-09T16:37:37.978Z,31.37
2018-09-09T16:40:05.297Z,31.23
2018-09-09T16:42:32.647Z,30.78
2018-09-09T16:44:59.943Z,30.58
2018-09-09T16:47:27.280Z,30.21
2018-09-09T16:49:54.566Z,29.70
2018-09-09T16:52:21.908Z,29.45
2018-09-09T16:54:50.225Z,29.17
2018-09-09T16:57:17.451Z,28.94
2018-09-09T16:59:44.706Z,28.67
2018-09-09T17:02:11.945Z,28.34
2018-09-09T17:04:39.186Z,28.08
2018-09-09T17:07:06.417Z,27.84
2018-09-09T17:09:33.740Z,27.61
2018-09-09T17:12:01.003Z,27.39
2018-09-09T17:14:28.241Z,27.18
2018-09-09T17:16:55.401Z,26.94
2018-09-09T17:19:22.737Z,26.71
2018-09-09T17:21:50.045Z,26.50
2018-09-09T17:24:17.198Z,26.35
2018-09-09T17:26:44.435Z,26.15
2018-09-09T17:29:11.601Z,25.96
2018-09-09T17:31:38.873Z,25.76
2018-09-09T17:34:06.105Z,25.62
2018-09-09T17:36:33.378Z,25.36
2018-09-09T17:39:00.608Z,25.19
2018-09-09T17:41:27.888Z,24.93
2018-09-09T17:43:55.266Z,24.86
2018-09-09T17:46:22.466Z,24.68
2018-09-09T17:48:49.789Z,24.43
2018-09-09T17:51:17.085Z,24.18
2018-09-09T17:53:44.318Z,24.01
2018-09-09T17:56:11.546Z,24.02
2018-09-09T17:58:38.785Z,23.81
2018-09-09T18:01:06.032Z,23.58
2018-09-09T18:03:33.315Z,23.39
2018-09-09T18:06:00.630Z,23.24
2018-09-09T18:08:27.851Z,23.22
2018-09-09T18:10:55.126Z,23.09
2018-09-09T18:13:22.311Z,22.89
2018-09-09T18:15:49.626Z,22.73
2018-09-09T18:18:16.835Z,22.66
2018-09-09T18:20:44.132Z,22.57
2018-09-09T18:23:11.449Z,22.44
2018-09-09T18:25:39.763Z,22.43
2018-09-09T18:28:07.078Z,22.21
2018-09-09T18:30:34.304Z,22.17
2018-09-09T18:33:01.601Z,22.04
2018-09-09T18:35:29.114Z,21.99
2018-09-09T18:37:56.433Z,21.86
2018-09-09T18:40:23.740Z,21.74
2018-09-09T18:42:51.026Z,21.70
2018-09-09T18:45:18.295Z,21.67
2018-09-09T18:47:45.731Z,21.69
2018-09-09T18:50:12.860Z,21.55
2018-09-09T18:52:40.166Z,21.47
2018-09-09T18:55:07.393Z,21.34
2018-09-09T18:57:34.645Z,21.26
2018-09-09T19:00:01.991Z,21.16
2018-09-09T19:02:29.261Z,21.15
2018-09-09T19:04:56.548Z,21.13
2018-09-09T19:07:23.788Z,21.04
2018-09-09T19:09:50.976Z,20.95
2018-09-09T19:12:18.296Z,20.91
2018-09-09T19:14:45.514Z,20.59
2018-09-09T19:17:12.729Z,20.57
2018-09-09T19:19:39.966Z,20.53
2018-09-09T19:22:07.204Z,20.53
2018-09-09T19:24:34.420Z,20.41
2018-09-09T19:27:01.659Z,20.17
2018-09-09T19:29:28.950Z,20.17
2018-09-09T19:31:56.181Z,20.08
2018-09-09T19:34:23.590Z,20.02
2018-09-09T19:36:50.837Z,20.02
2018-09-09T19:39:18.104Z,19.98
2018-09-09T19:41:45.338Z,19.94
2018-09-09T19:44:12.681Z,19.85
2018-09-09T19:46:39.823Z,19.88
2018-09-09T19:49:07.138Z,19.87
2018-09-09T19:51:34.827Z,19.73
2018-09-09T19:54:02.029Z,19.66
2018-09-09T19:56:29.265Z,19.62
2018-09-09T19:58:56.522Z,19.52
2018-09-09T20:01:23.785Z,19.09
2018-09-09T20:03:50.959Z,19.29
2018-09-09T20:06:18.220Z,19.14
2018-09-09T20:08:45.397Z,19.08
2018-09-09T20:11:12.684Z,19.01
2018-09-09T20:13:39.941Z,18.95
2018-09-09T20:16:07.173Z,18.97
2018-09-09T20:18:34.486Z,18.96
2018-09-09T20:21:01.699Z,18.94
2018-09-09T20:23:28.942Z,18.87
2018-09-09T20:25:56.220Z,18.77
2018-09-09T20:28:23.432Z,18.78
2018-09-09T20:30:50.707Z,18.60
2018-09-09T20:33:17.970Z,18.55
2018-09-09T20:35:45.309Z,18.54
2018-09-09T20:38:12.583Z,18.53
2018-09-09T20:40:39.801Z,18.45
2018-09-09T20:43:07.057Z,18.47
2018-09-09T20:45:34.337Z,18.38
2018-09-09T20:48:01.611Z,18.34
2018-09-09T20:50:28.924Z,18.34
2018-09-09T20:52:56.154Z,18.26
2018-09-09T20:55:23.392Z,18.16
2018-09-09T20:57:50.613Z,18.08
2018-09-09T21:00:17.900Z,17.98
2018-09-09T21:02:45.121Z,17.86
2018-09-09T21:05:12.362Z,17.92
2018-09-09T21:07:39.628Z,17.81
2018-09-09T21:10:06.870Z,17.78
2018-09-09T21:12:34.223Z,17.77
2018-09-09T21:15:02.948Z,17.69
2018-09-09T21:17:30.454Z,17.70
2018-09-09T21:19:57.703Z,17.59
2018-09-09T21:22:24.901Z,17.65
2018-09-09T21:24:52.065Z,17.49
2018-09-09T21:27:19.331Z,17.37
2018-09-09T21:29:46.544Z,17.37
2018-09-09T21:32:13.848Z,17.28
2018-09-09T21:34:41.179Z,17.20
2018-09-09T21:37:08.362Z,17.08
2018-09-09T21:39:35.664Z,17.17
2018-09-09T21:42:02.899Z,17.19
2018-09-09T21:44:30.092Z,17.20
2018-09-09T21:46:57.373Z,16.98
2018-09-09T21:49:24.670Z,17.09
2018-09-09T21:51:51.989Z,17.09
2018-09-09T21:54:19.157Z,17.05
2018-09-09T21:56:46.375Z,17.08
2018-09-09T21:59:13.642Z,16.98
2018-09-09T22:01:46.549Z,16.94
2018-09-09T22:04:13.741Z,16.84
2018-09-09T22:06:40.949Z,16.86
2018-09-09T22:09:08.735Z,16.77
2018-09-09T22:11:36.321Z,16.58
2018-09-09T22:14:03.645Z,16.43
2018-09-09T22:16:30.949Z,16.50
2018-09-09T22:18:58.157Z,16.42
2018-09-09T22:21:25.446Z,16.42
2018-09-09T22:23:52.641Z,16.43
2018-09-09T22:26:19.940Z,16.41
2018-09-09T22:28:47.635Z,16.43
2018-09-09T22:31:14.851Z,16.41
2018-09-09T22:33:42.049Z,16.37
2018-09-09T22:36:09.618Z,16.29
2018-09-09T22:38:36.963Z,16.21
2018-09-09T22:41:04.265Z,16.13
2018-09-09T22:43:31.490Z,16.11
2018-09-09T22:45:59.176Z,16.08
2018-09-09T22:48:26.957Z,15.99
2018-09-09T22:50:54.169Z,16.00
2018-09-09T22:53:21.392Z,15.97
2018-09-09T22:55:48.698Z,15.98
2018-09-09T22:58:15.930Z,15.92
2018-09-09T23:00:43.232Z,15.94
2018-09-09T23:03:10.503Z,15.79
2018-09-09T23:05:37.824Z,15.72
2018-09-09T23:08:05.010Z,15.72
2018-09-09T23:10:32.268Z,15.76
2018-09-09T23:12:59.491Z,15.66
2018-09-09T23:15:27.635Z,15.55
2018-09-09T23:17:55.124Z,15.56
2018-09-09T23:20:22.392Z,15.60
2018-09-09T23:22:50.249Z,15.56
2018-09-09T23:25:17.479Z,15.51
2018-09-09T23:27:44.807Z,15.46
2018-09-09T23:30:12.085Z,15.48
2018-09-09T23:32:39.363Z,15.46
2018-09-09T23:35:06.668Z,15.36
2018-09-09T23:37:33.929Z,15.42
2018-09-09T23:40:01.169Z,15.40
2018-09-09T23:42:28.442Z,15.38
2018-09-09T23:44:55.663Z,15.39
2018-09-09T23:47:22.918Z,15.31
2018-09-09T23:49:50.099Z,15.29
2018-09-09T23:52:17.351Z,15.26
2018-09-09T23:54:44.799Z,15.36
2018-09-09T23:57:12.102Z,15.26
2018-09-09T23:59:39.342Z,15.21
